sensor_id;sensor_type;location;lat;lon;timestamp;P1;durP1;ratioP1;P2;durP2;ratioP2
2928;SDS011;1474;51.460;7.150;2022-12-18T00:02:14;6.03;;;3.08;;
2928;SDS011;1474;51.460;7.150;2022-12-18T00:04:40;4.72;;;3.58;;
2928;SDS011;1474;51.460;7.150;2022-12-18T00:07:05;7.18;;;4.55;;
2928;SDS011;1474;51.460;7.150;2022-12-18T00:09:31;6.55;;;4.00;;
2928;SDS011;1474;51.460;7.150;2022-12-18T00:11:57;5.75;;;3.90;;
2928;SDS011;1474;51.460;7.150;2022-12-18T00:14:22;10.10;;;4.15;;
2928;SDS011;1474;51.460;7.150;2022-12-18T00:16:48;7.35;;;3.15;;
2928;SDS011;1474;51.460;7.150;2022-12-18T00:19:13;4.93;;;4.43;;
2928;SDS011;1474;51.460;7.150;2022-12-18T00:21:40;6.90;;;4.10;;
2928;SDS011;1474;51.460;7.150;2022-12-18T00:24:06;8.30;;;4.97;;
2928;SDS011;1474;51.460;7.150;2022-12-18T00:26:33;7.97;;;4.20;;
2928;SDS011;1474;51.460;7.150;2022-12-18T00:29:01;5.90;;;2.97;;
2928;SDS011;1474;51.460;7.150;2022-12-18T00:31:29;5.22;;;4.72;;
2928;SDS011;1474;51.460;7.150;2022-12-18T00:33:55;7.97;;;4.90;;
2928;SDS011;1474;51.460;7.150;2022-12-18T00:36:23;7.32;;;4.72;;
2928;SDS011;1474;51.460;7.150;2022-12-18T00:38:54;8.60;;;3.53;;
2928;SDS011;1474;51.460;7.150;2022-12-18T00:41:20;5.60;;;4.40;;
2928;SDS011;1474;51.460;7.150;2022-12-18T00:44:06;2.95;;;2.67;;
2928;SDS011;1474;51.460;7.150;2022-12-18T00:46:33;6.00;;;4.30;;
2928;SDS011;1474;51.460;7.150;2022-12-18T00:48:59;4.75;;;4.15;;
2928;SDS011;1474;51.460;7.150;2022-12-18T00:51:25;4.38;;;3.80;;
2928;SDS011;1474;51.460;7.150;2022-12-18T00:53:51;7.03;;;4.65;;
2928;SDS011;1474;51.460;7.150;2022-12-18T00:56:17;10.73;;;4.90;;
2928;SDS011;1474;51.460;7.150;2022-12-18T00:58:46;4.93;;;3.85;;
2928;SDS011;1474;51.460;7.150;2022-12-18T01:01:12;9.93;;;3.72;;
2928;SDS011;1474;51.460;7.150;2022-12-18T01:03:37;3.97;;;3.58;;
2928;SDS011;1474;51.460;7.150;2022-12-18T01:06:06;7.47;;;4.30;;
2928;SDS011;1474;51.460;7.150;2022-12-18T01:08:34;4.63;;;3.42;;
2928;SDS011;1474;51.460;7.150;2022-12-18T01:11:00;3.40;;;3.08;;
2928;SDS011;1474;51.460;7.150;2022-12-18T01:13:26;5.68;;;3.35;;
2928;SDS011;1474;51.460;7.150;2022-12-18T01:15:52;4.38;;;3.97;;
2928;SDS011;1474;51.460;7.150;2022-12-18T01:18:18;5.00;;;3.83;;
2928;SDS011;1474;51.460;7.150;2022-12-18T01:20:44;4.00;;;3.70;;
2928;SDS011;1474;51.460;7.150;2022-12-18T01:23:09;3.60;;;3.35;;
2928;SDS011;1474;51.460;7.150;2022-12-18T01:25:35;5.95;;;3.88;;
2928;SDS011;1474;51.460;7.150;2022-12-18T01:28:01;6.00;;;4.00;;
2928;SDS011;1474;51.460;7.150;2022-12-18T01:30:27;4.20;;;3.40;;
2928;SDS011;1474;51.460;7.150;2022-12-18T01:32:53;6.15;;;3.95;;
2928;SDS011;1474;51.460;7.150;2022-12-18T01:35:18;5.57;;;2.72;;
2928;SDS011;1474;51.460;7.150;2022-12-18T01:37:44;7.82;;;4.78;;
2928;SDS011;1474;51.460;7.150;2022-12-18T01:40:10;4.68;;;3.72;;
2928;SDS011;1474;51.460;7.150;2022-12-18T01:42:35;7.38;;;4.15;;
2928;SDS011;1474;51.460;7.150;2022-12-18T01:47:46;4.10;;;3.70;;
2928;SDS011;1474;51.460;7.150;2022-12-18T01:50:31;12.48;;;5.32;;
2928;SDS011;1474;51.460;7.150;2022-12-18T01:53:07;5.40;;;4.10;;
2928;SDS011;1474;51.460;7.150;2022-12-18T01:55:39;2.75;;;2.45;;
2928;SDS011;1474;51.460;7.150;2022-12-18T01:58:14;4.45;;;3.08;;
2928;SDS011;1474;51.460;7.150;2022-12-18T02:00:41;3.83;;;2.78;;
2928;SDS011;1474;51.460;7.150;2022-12-18T02:03:06;4.88;;;2.00;;
2928;SDS011;1474;51.460;7.150;2022-12-18T02:08:28;1.60;;;1.40;;
2928;SDS011;1474;51.460;7.150;2022-12-18T02:13:52;3.08;;;1.70;;
2928;SDS011;1474;51.460;7.150;2022-12-18T02:16:37;3.47;;;3.03;;
2928;SDS011;1474;51.460;7.150;2022-12-18T02:22:17;1.40;;;1.30;;
2928;SDS011;1474;51.460;7.150;2022-12-18T02:27:41;1.70;;;1.60;;
2928;SDS011;1474;51.460;7.150;2022-12-18T02:30:10;1.30;;;1.20;;
2928;SDS011;1474;51.460;7.150;2022-12-18T02:32:41;2.00;;;1.77;;
2928;SDS011;1474;51.460;7.150;2022-12-18T02:35:15;1.35;;;1.23;;
2928;SDS011;1474;51.460;7.150;2022-12-18T02:37:45;2.95;;;2.00;;
2928;SDS011;1474;51.460;7.150;2022-12-18T02:40:12;6.95;;;3.28;;
2928;SDS011;1474;51.460;7.150;2022-12-18T02:42:39;1.95;;;1.50;;
2928;SDS011;1474;51.460;7.150;2022-12-18T02:45:05;2.55;;;1.92;;
2928;SDS011;1474;51.460;7.150;2022-12-18T02:47:32;3.38;;;3.05;;
2928;SDS011;1474;51.460;7.150;2022-12-18T02:55:27;1.40;;;1.17;;
2928;SDS011;1474;51.460;7.150;2022-12-18T02:58:16;2.95;;;1.55;;
2928;SDS011;1474;51.460;7.150;2022-12-18T03:00:53;3.13;;;2.10;;
2928;SDS011;1474;51.460;7.150;2022-12-18T03:03:29;2.50;;;1.45;;
2928;SDS011;1474;51.460;7.150;2022-12-18T03:06:00;4.13;;;2.80;;
2928;SDS011;1474;51.460;7.150;2022-12-18T03:08:39;2.50;;;2.30;;
2928;SDS011;1474;51.460;7.150;2022-12-18T03:11:09;2.15;;;1.95;;
2928;SDS011;1474;51.460;7.150;2022-12-18T03:13:41;3.22;;;2.75;;
2928;SDS011;1474;51.460;7.150;2022-12-18T03:16:10;3.53;;;2.25;;
2928;SDS011;1474;51.460;7.150;2022-12-18T03:18:47;2.38;;;2.13;;
2928;SDS011;1474;51.460;7.150;2022-12-18T03:21:21;2.72;;;2.50;;
2928;SDS011;1474;51.460;7.150;2022-12-18T03:23:51;2.47;;;1.53;;
2928;SDS011;1474;51.460;7.150;2022-12-18T03:26:19;3.80;;;2.92;;
2928;SDS011;1474;51.460;7.150;2022-12-18T03:28:51;3.88;;;2.28;;
2928;SDS011;1474;51.460;7.150;2022-12-18T03:31:27;1.73;;;1.50;;
2928;SDS011;1474;51.460;7.150;2022-12-18T03:33:57;4.85;;;1.70;;
2928;SDS011;1474;51.460;7.150;2022-12-18T03:36:24;3.67;;;2.95;;
2928;SDS011;1474;51.460;7.150;2022-12-18T03:38:51;7.40;;;2.80;;
2928;SDS011;1474;51.460;7.150;2022-12-18T03:44:28;4.13;;;3.38;;
2928;SDS011;1474;51.460;7.150;2022-12-18T03:49:44;3.33;;;2.58;;
2928;SDS011;1474;51.460;7.150;2022-12-18T03:52:36;3.28;;;2.50;;
2928;SDS011;1474;51.460;7.150;2022-12-18T03:55:08;8.65;;;2.60;;
2928;SDS011;1474;51.460;7.150;2022-12-18T03:57:35;4.75;;;1.83;;
2928;SDS011;1474;51.460;7.150;2022-12-18T04:00:06;4.55;;;2.85;;
2928;SDS011;1474;51.460;7.150;2022-12-18T04:02:37;2.95;;;2.30;;
2928;SDS011;1474;51.460;7.150;2022-12-18T04:05:08;4.35;;;2.40;;
2928;SDS011;1474;51.460;7.150;2022-12-18T04:07:36;3.13;;;2.53;;
2928;SDS011;1474;51.460;7.150;2022-12-18T04:10:03;2.53;;;1.80;;
2928;SDS011;1474;51.460;7.150;2022-12-18T04:12:31;2.47;;;1.58;;
2928;SDS011;1474;51.460;7.150;2022-12-18T04:14:57;2.15;;;1.95;;
2928;SDS011;1474;51.460;7.150;2022-12-18T04:17:23;4.15;;;1.90;;
2928;SDS011;1474;51.460;7.150;2022-12-18T04:19:49;3.40;;;1.63;;
2928;SDS011;1474;51.460;7.150;2022-12-18T04:22:15;3.45;;;2.10;;
2928;SDS011;1474;51.460;7.150;2022-12-18T04:24:40;4.10;;;2.30;;
2928;SDS011;1474;51.460;7.150;2022-12-18T04:27:06;1.55;;;1.40;;
2928;SDS011;1474;51.460;7.150;2022-12-18T04:29:32;1.98;;;1.83;;
2928;SDS011;1474;51.460;7.150;2022-12-18T04:31:58;1.77;;;1.60;;
2928;SDS011;1474;51.460;7.150;2022-12-18T04:34:23;4.05;;;2.42;;
2928;SDS011;1474;51.460;7.150;2022-12-18T04:36:51;2.80;;;1.77;;
2928;SDS011;1474;51.460;7.150;2022-12-18T04:39:17;3.08;;;1.52;;
2928;SDS011;1474;51.460;7.150;2022-12-18T04:41:43;2.58;;;1.73;;
2928;SDS011;1474;51.460;7.150;2022-12-18T04:44:09;2.72;;;1.60;;
2928;SDS011;1474;51.460;7.150;2022-12-18T04:46:35;5.88;;;2.30;;
2928;SDS011;1474;51.460;7.150;2022-12-18T04:49:00;2.53;;;2.10;;
2928;SDS011;1474;51.460;7.150;2022-12-18T04:51:26;4.35;;;1.92;;
2928;SDS011;1474;51.460;7.150;2022-12-18T04:53:51;2.20;;;1.42;;
2928;SDS011;1474;51.460;7.150;2022-12-18T04:56:17;2.75;;;1.95;;
2928;SDS011;1474;51.460;7.150;2022-12-18T04:58:43;4.72;;;2.13;;
2928;SDS011;1474;51.460;7.150;2022-12-18T05:01:09;1.60;;;1.50;;
2928;SDS011;1474;51.460;7.150;2022-12-18T05:03:36;1.95;;;1.30;;
2928;SDS011;1474;51.460;7.150;2022-12-18T05:06:03;2.30;;;1.35;;
2928;SDS011;1474;51.460;7.150;2022-12-18T05:08:29;2.47;;;1.35;;
2928;SDS011;1474;51.460;7.150;2022-12-18T05:11:02;2.30;;;1.48;;
2928;SDS011;1474;51.460;7.150;2022-12-18T05:13:33;2.90;;;2.25;;
2928;SDS011;1474;51.460;7.150;2022-12-18T05:15:59;2.13;;;1.27;;
2928;SDS011;1474;51.460;7.150;2022-12-18T05:18:25;3.00;;;1.52;;
2928;SDS011;1474;51.460;7.150;2022-12-18T05:20:51;4.57;;;2.58;;
2928;SDS011;1474;51.460;7.150;2022-12-18T05:23:18;2.88;;;1.20;;
2928;SDS011;1474;51.460;7.150;2022-12-18T05:25:55;2.45;;;1.25;;
2928;SDS011;1474;51.460;7.150;2022-12-18T05:28:26;2.30;;;1.30;;
2928;SDS011;1474;51.460;7.150;2022-12-18T05:30:54;2.55;;;1.85;;
2928;SDS011;1474;51.460;7.150;2022-12-18T05:33:22;3.75;;;1.77;;
2928;SDS011;1474;51.460;7.150;2022-12-18T05:35:54;3.13;;;1.88;;
2928;SDS011;1474;51.460;7.150;2022-12-18T05:38:21;2.30;;;1.10;;
2928;SDS011;1474;51.460;7.150;2022-12-18T05:40:48;1.17;;;1.10;;
2928;SDS011;1474;51.460;7.150;2022-12-18T05:43:14;2.20;;;1.25;;
2928;SDS011;1474;51.460;7.150;2022-12-18T05:45:40;1.60;;;0.68;;
2928;SDS011;1474;51.460;7.150;2022-12-18T05:48:07;3.22;;;1.85;;
2928;SDS011;1474;51.460;7.150;2022-12-18T05:50:43;2.03;;;1.10;;
2928;SDS011;1474;51.460;7.150;2022-12-18T05:53:10;2.90;;;1.05;;
2928;SDS011;1474;51.460;7.150;2022-12-18T05:55:38;2.90;;;1.90;;
2928;SDS011;1474;51.460;7.150;2022-12-18T05:58:05;2.28;;;1.05;;
2928;SDS011;1474;51.460;7.150;2022-12-18T06:00:32;1.77;;;1.30;;
2928;SDS011;1474;51.460;7.150;2022-12-18T06:02:59;1.08;;;0.90;;
2928;SDS011;1474;51.460;7.150;2022-12-18T06:05:26;3.08;;;1.95;;
2928;SDS011;1474;51.460;7.150;2022-12-18T06:07:52;2.17;;;1.65;;
2928;SDS011;1474;51.460;7.150;2022-12-18T06:10:18;3.50;;;1.35;;
2928;SDS011;1474;51.460;7.150;2022-12-18T06:12:43;1.98;;;1.48;;
2928;SDS011;1474;51.460;7.150;2022-12-18T06:15:09;2.03;;;1.58;;
2928;SDS011;1474;51.460;7.150;2022-12-18T06:17:35;1.05;;;0.95;;
2928;SDS011;1474;51.460;7.150;2022-12-18T06:20:01;1.83;;;1.40;;
2928;SDS011;1474;51.460;7.150;2022-12-18T06:22:28;2.00;;;1.38;;
2928;SDS011;1474;51.460;7.150;2022-12-18T06:24:56;1.10;;;1.00;;
2928;SDS011;1474;51.460;7.150;2022-12-18T06:27:22;2.05;;;1.85;;
2928;SDS011;1474;51.460;7.150;2022-12-18T06:29:47;1.83;;;1.42;;
2928;SDS011;1474;51.460;7.150;2022-12-18T06:32:13;2.13;;;1.45;;
2928;SDS011;1474;51.460;7.150;2022-12-18T06:34:39;3.63;;;2.08;;
2928;SDS011;1474;51.460;7.150;2022-12-18T06:37:05;1.92;;;1.75;;
2928;SDS011;1474;51.460;7.150;2022-12-18T06:39:31;2.35;;;1.00;;
2928;SDS011;1474;51.460;7.150;2022-12-18T06:41:56;1.63;;;1.05;;
2928;SDS011;1474;51.460;7.150;2022-12-18T06:44:22;2.03;;;0.98;;
2928;SDS011;1474;51.460;7.150;2022-12-18T06:46:50;2.15;;;1.70;;
2928;SDS011;1474;51.460;7.150;2022-12-18T06:49:16;1.58;;;1.33;;
2928;SDS011;1474;51.460;7.150;2022-12-18T06:51:41;1.90;;;1.70;;
2928;SDS011;1474;51.460;7.150;2022-12-18T06:54:07;4.75;;;1.98;;
2928;SDS011;1474;51.460;7.150;2022-12-18T06:56:33;3.22;;;1.90;;
2928;SDS011;1474;51.460;7.150;2022-12-18T06:58:59;5.35;;;2.25;;
2928;SDS011;1474;51.460;7.150;2022-12-18T07:01:25;3.22;;;2.35;;
2928;SDS011;1474;51.460;7.150;2022-12-18T07:03:52;2.70;;;1.88;;
2928;SDS011;1474;51.460;7.150;2022-12-18T07:06:20;1.83;;;1.50;;
2928;SDS011;1474;51.460;7.150;2022-12-18T07:08:47;2.28;;;1.30;;
2928;SDS011;1474;51.460;7.150;2022-12-18T07:11:13;3.72;;;2.53;;
2928;SDS011;1474;51.460;7.150;2022-12-18T07:13:39;3.78;;;1.80;;
2928;SDS011;1474;51.460;7.150;2022-12-18T07:16:09;3.63;;;2.20;;
2928;SDS011;1474;51.460;7.150;2022-12-18T07:18:36;3.70;;;1.80;;
2928;SDS011;1474;51.460;7.150;2022-12-18T07:21:03;2.55;;;1.77;;
2928;SDS011;1474;51.460;7.150;2022-12-18T07:23:29;1.90;;;1.38;;
2928;SDS011;1474;51.460;7.150;2022-12-18T07:26:00;4.72;;;3.05;;
2928;SDS011;1474;51.460;7.150;2022-12-18T07:28:29;4.72;;;1.92;;
2928;SDS011;1474;51.460;7.150;2022-12-18T07:30:55;3.38;;;2.15;;
2928;SDS011;1474;51.460;7.150;2022-12-18T07:33:21;2.70;;;1.80;;
2928;SDS011;1474;51.460;7.150;2022-12-18T07:35:46;3.22;;;1.75;;
2928;SDS011;1474;51.460;7.150;2022-12-18T07:38:12;4.38;;;1.52;;
2928;SDS011;1474;51.460;7.150;2022-12-18T07:40:38;4.65;;;1.85;;
2928;SDS011;1474;51.460;7.150;2022-12-18T07:43:03;3.03;;;1.52;;
2928;SDS011;1474;51.460;7.150;2022-12-18T07:45:29;3.00;;;2.58;;
2928;SDS011;1474;51.460;7.150;2022-12-18T07:47:54;2.08;;;1.75;;
2928;SDS011;1474;51.460;7.150;2022-12-18T07:50:20;1.25;;;1.15;;
2928;SDS011;1474;51.460;7.150;2022-12-18T07:52:46;1.38;;;1.23;;
2928;SDS011;1474;51.460;7.150;2022-12-18T07:55:11;2.70;;;2.05;;
2928;SDS011;1474;51.460;7.150;2022-12-18T07:57:37;2.03;;;1.70;;
2928;SDS011;1474;51.460;7.150;2022-12-18T08:00:03;2.30;;;1.83;;
2928;SDS011;1474;51.460;7.150;2022-12-18T08:02:32;2.88;;;1.70;;
2928;SDS011;1474;51.460;7.150;2022-12-18T08:04:58;2.08;;;1.92;;
2928;SDS011;1474;51.460;7.150;2022-12-18T08:07:23;4.05;;;2.45;;
2928;SDS011;1474;51.460;7.150;2022-12-18T08:09:49;3.00;;;1.90;;
2928;SDS011;1474;51.460;7.150;2022-12-18T08:12:14;4.18;;;2.65;;
2928;SDS011;1474;51.460;7.150;2022-12-18T08:14:40;3.78;;;2.20;;
2928;SDS011;1474;51.460;7.150;2022-12-18T08:17:06;3.83;;;2.55;;
2928;SDS011;1474;51.460;7.150;2022-12-18T08:19:31;2.63;;;2.40;;
2928;SDS011;1474;51.460;7.150;2022-12-18T08:22:00;4.13;;;1.75;;
2928;SDS011;1474;51.460;7.150;2022-12-18T08:24:25;2.88;;;1.70;;
2928;SDS011;1474;51.460;7.150;2022-12-18T08:26:51;2.67;;;1.73;;
2928;SDS011;1474;51.460;7.150;2022-12-18T08:29:16;3.28;;;2.20;;
2928;SDS011;1474;51.460;7.150;2022-12-18T08:31:42;2.03;;;1.80;;
2928;SDS011;1474;51.460;7.150;2022-12-18T08:34:08;6.60;;;3.10;;
2928;SDS011;1474;51.460;7.150;2022-12-18T08:36:34;3.25;;;2.35;;
2928;SDS011;1474;51.460;7.150;2022-12-18T08:38:59;4.47;;;2.83;;
2928;SDS011;1474;51.460;7.150;2022-12-18T08:41:25;5.95;;;2.70;;
2928;SDS011;1474;51.460;7.150;2022-12-18T08:43:51;3.65;;;1.90;;
2928;SDS011;1474;51.460;7.150;2022-12-18T08:46:36;5.05;;;2.45;;
2928;SDS011;1474;51.460;7.150;2022-12-18T08:49:03;5.97;;;3.33;;
2928;SDS011;1474;51.460;7.150;2022-12-18T08:51:30;2.42;;;2.25;;
2928;SDS011;1474;51.460;7.150;2022-12-18T08:53:56;4.03;;;3.00;;
2928;SDS011;1474;51.460;7.150;2022-12-18T08:56:21;4.18;;;2.20;;
2928;SDS011;1474;51.460;7.150;2022-12-18T08:58:47;4.05;;;1.45;;
2928;SDS011;1474;51.460;7.150;2022-12-18T09:01:15;3.55;;;1.55;;
2928;SDS011;1474;51.460;7.150;2022-12-18T09:03:41;2.33;;;1.95;;
2928;SDS011;1474;51.460;7.150;2022-12-18T09:06:06;3.33;;;1.58;;
2928;SDS011;1474;51.460;7.150;2022-12-18T09:08:35;1.40;;;0.85;;
2928;SDS011;1474;51.460;7.150;2022-12-18T09:11:04;2.40;;;1.75;;
2928;SDS011;1474;51.460;7.150;2022-12-18T09:13:29;1.73;;;1.20;;
2928;SDS011;1474;51.460;7.150;2022-12-18T09:15:55;1.25;;;1.02;;
2928;SDS011;1474;51.460;7.150;2022-12-18T09:18:22;2.80;;;1.40;;
2928;SDS011;1474;51.460;7.150;2022-12-18T09:20:48;1.85;;;1.05;;
2928;SDS011;1474;51.460;7.150;2022-12-18T09:23:16;0.98;;;0.88;;
2928;SDS011;1474;51.460;7.150;2022-12-18T09:25:42;4.85;;;2.85;;
2928;SDS011;1474;51.460;7.150;2022-12-18T09:28:12;1.65;;;1.20;;
2928;SDS011;1474;51.460;7.150;2022-12-18T09:30:43;4.40;;;2.67;;
2928;SDS011;1474;51.460;7.150;2022-12-18T09:33:10;3.08;;;1.58;;
2928;SDS011;1474;51.460;7.150;2022-12-18T09:35:36;2.65;;;1.40;;
2928;SDS011;1474;51.460;7.150;2022-12-18T09:38:05;2.08;;;1.40;;
2928;SDS011;1474;51.460;7.150;2022-12-18T09:40:53;2.80;;;1.58;;
2928;SDS011;1474;51.460;7.150;2022-12-18T09:43:20;1.45;;;1.35;;
2928;SDS011;1474;51.460;7.150;2022-12-18T09:45:54;2.05;;;1.60;;
2928;SDS011;1474;51.460;7.150;2022-12-18T09:50:57;1.40;;;1.02;;
2928;SDS011;1474;51.460;7.150;2022-12-18T09:53:55;1.35;;;1.13;;
2928;SDS011;1474;51.460;7.150;2022-12-18T09:56:25;2.20;;;1.38;;
2928;SDS011;1474;51.460;7.150;2022-12-18T09:59:00;1.70;;;1.45;;
2928;SDS011;1474;51.460;7.150;2022-12-18T10:01:27;4.35;;;1.85;;
2928;SDS011;1474;51.460;7.150;2022-12-18T10:03:55;2.33;;;1.52;;
2928;SDS011;1474;51.460;7.150;2022-12-18T10:09:00;3.05;;;1.40;;
2928;SDS011;1474;51.460;7.150;2022-12-18T10:20:05;2.33;;;1.33;;
2928;SDS011;1474;51.460;7.150;2022-12-18T10:22:47;6.78;;;1.52;;
2928;SDS011;1474;51.460;7.150;2022-12-18T10:28:14;1.75;;;1.60;;
2928;SDS011;1474;51.460;7.150;2022-12-18T10:30:41;3.25;;;2.03;;
2928;SDS011;1474;51.460;7.150;2022-12-18T10:33:14;2.75;;;1.77;;
2928;SDS011;1474;51.460;7.150;2022-12-18T10:35:43;3.50;;;2.17;;
2928;SDS011;1474;51.460;7.150;2022-12-18T10:43:16;2.83;;;2.10;;
2928;SDS011;1474;51.460;7.150;2022-12-18T10:45:58;1.80;;;1.70;;
2928;SDS011;1474;51.460;7.150;2022-12-18T10:48:30;3.97;;;1.98;;
2928;SDS011;1474;51.460;7.150;2022-12-18T10:50:58;3.58;;;1.67;;
2928;SDS011;1474;51.460;7.150;2022-12-18T10:53:28;3.15;;;2.40;;
2928;SDS011;1474;51.460;7.150;2022-12-18T10:55:56;3.08;;;2.22;;
2928;SDS011;1474;51.460;7.150;2022-12-18T10:58:30;3.60;;;2.25;;
2928;SDS011;1474;51.460;7.150;2022-12-18T11:01:14;2.50;;;1.60;;
2928;SDS011;1474;51.460;7.150;2022-12-18T11:03:46;3.88;;;2.50;;
2928;SDS011;1474;51.460;7.150;2022-12-18T11:06:32;3.15;;;2.35;;
2928;SDS011;1474;51.460;7.150;2022-12-18T11:09:05;2.50;;;1.90;;
2928;SDS011;1474;51.460;7.150;2022-12-18T11:11:48;2.78;;;2.17;;
2928;SDS011;1474;51.460;7.150;2022-12-18T11:14:18;5.10;;;2.38;;
2928;SDS011;1474;51.460;7.150;2022-12-18T11:16:50;2.40;;;1.85;;
2928;SDS011;1474;51.460;7.150;2022-12-18T11:19:22;4.05;;;1.88;;
2928;SDS011;1474;51.460;7.150;2022-12-18T11:21:59;2.47;;;1.77;;
2928;SDS011;1474;51.460;7.150;2022-12-18T11:27:00;2.60;;;1.77;;
2928;SDS011;1474;51.460;7.150;2022-12-18T11:29:32;6.95;;;2.38;;
2928;SDS011;1474;51.460;7.150;2022-12-18T11:32:19;2.60;;;1.92;;
2928;SDS011;1474;51.460;7.150;2022-12-18T11:34:55;5.07;;;2.20;;
2928;SDS011;1474;51.460;7.150;2022-12-18T11:37:26;2.85;;;2.03;;
2928;SDS011;1474;51.460;7.150;2022-12-18T11:39:57;3.35;;;2.40;;
2928;SDS011;1474;51.460;7.150;2022-12-18T11:45:01;4.43;;;2.00;;
2928;SDS011;1474;51.460;7.150;2022-12-18T11:50:51;3.10;;;1.90;;
2928;SDS011;1474;51.460;7.150;2022-12-18T11:53:19;6.57;;;5.95;;
2928;SDS011;1474;51.460;7.150;2022-12-18T11:58:37;3.33;;;1.95;;
2928;SDS011;1474;51.460;7.150;2022-12-18T12:04:20;2.83;;;2.30;;
2928;SDS011;1474;51.460;7.150;2022-12-18T12:06:55;2.47;;;2.08;;
2928;SDS011;1474;51.460;7.150;2022-12-18T12:09:35;3.22;;;2.53;;
2928;SDS011;1474;51.460;7.150;2022-12-18T12:12:31;3.53;;;2.15;;
2928;SDS011;1474;51.460;7.150;2022-12-18T12:18:15;3.95;;;2.30;;
2928;SDS011;1474;51.460;7.150;2022-12-18T12:20:57;4.78;;;2.78;;
2928;SDS011;1474;51.460;7.150;2022-12-18T12:35:22;3.75;;;1.95;;
2928;SDS011;1474;51.460;7.150;2022-12-18T12:38:06;2.33;;;1.48;;
2928;SDS011;1474;51.460;7.150;2022-12-18T12:40:43;3.90;;;1.88;;
2928;SDS011;1474;51.460;7.150;2022-12-18T12:43:16;4.40;;;2.10;;
2928;SDS011;1474;51.460;7.150;2022-12-18T12:45:58;3.60;;;2.42;;
2928;SDS011;1474;51.460;7.150;2022-12-18T12:51:24;9.43;;;2.60;;
2928;SDS011;1474;51.460;7.150;2022-12-18T12:53:53;4.57;;;3.20;;
2928;SDS011;1474;51.460;7.150;2022-12-18T12:56:21;4.10;;;2.25;;
2928;SDS011;1474;51.460;7.150;2022-12-18T12:59:02;4.80;;;3.35;;
2928;SDS011;1474;51.460;7.150;2022-12-18T13:07:01;4.57;;;3.08;;
2928;SDS011;1474;51.460;7.150;2022-12-18T13:09:31;4.40;;;3.40;;
2928;SDS011;1474;51.460;7.150;2022-12-18T13:12:04;4.35;;;2.92;;
2928;SDS011;1474;51.460;7.150;2022-12-18T13:14:55;3.80;;;3.15;;
2928;SDS011;1474;51.460;7.150;2022-12-18T13:17:39;7.03;;;6.32;;
2928;SDS011;1474;51.460;7.150;2022-12-18T13:25:44;3.83;;;2.50;;
2928;SDS011;1474;51.460;7.150;2022-12-18T13:28:14;4.47;;;2.88;;
2928;SDS011;1474;51.460;7.150;2022-12-18T13:30:45;7.38;;;2.80;;
2928;SDS011;1474;51.460;7.150;2022-12-18T13:43:24;7.95;;;3.70;;
2928;SDS011;1474;51.460;7.150;2022-12-18T13:46:02;4.22;;;3.20;;
2928;SDS011;1474;51.460;7.150;2022-12-18T13:48:57;7.50;;;3.55;;
2928;SDS011;1474;51.460;7.150;2022-12-18T13:51:25;7.95;;;3.65;;
2928;SDS011;1474;51.460;7.150;2022-12-18T13:53:58;7.50;;;3.60;;
2928;SDS011;1474;51.460;7.150;2022-12-18T13:56:30;6.07;;;3.53;;
2928;SDS011;1474;51.460;7.150;2022-12-18T13:59:58;7.97;;;4.45;;
2928;SDS011;1474;51.460;7.150;2022-12-18T14:02:00;6.15;;;3.95;;
2928;SDS011;1474;51.460;7.150;2022-12-18T14:04:35;8.00;;;3.67;;
2928;SDS011;1474;51.460;7.150;2022-12-18T14:09:36;6.60;;;3.80;;
2928;SDS011;1474;51.460;7.150;2022-12-18T14:12:05;6.63;;;4.50;;
2928;SDS011;1474;51.460;7.150;2022-12-18T14:14:50;5.82;;;3.92;;
2928;SDS011;1474;51.460;7.150;2022-12-18T14:17:17;9.35;;;5.82;;
2928;SDS011;1474;51.460;7.150;2022-12-18T14:19:44;4.85;;;3.60;;
2928;SDS011;1474;51.460;7.150;2022-12-18T14:22:17;5.57;;;3.83;;
2928;SDS011;1474;51.460;7.150;2022-12-18T14:24:46;6.97;;;4.10;;
2928;SDS011;1474;51.460;7.150;2022-12-18T14:27:12;9.50;;;4.88;;
2928;SDS011;1474;51.460;7.150;2022-12-18T14:29:46;7.28;;;4.65;;
2928;SDS011;1474;51.460;7.150;2022-12-18T14:32:13;8.23;;;5.60;;
2928;SDS011;1474;51.460;7.150;2022-12-18T14:34:42;5.95;;;3.45;;
2928;SDS011;1474;51.460;7.150;2022-12-18T14:37:09;4.53;;;3.47;;
2928;SDS011;1474;51.460;7.150;2022-12-18T14:39:36;6.30;;;3.65;;
2928;SDS011;1474;51.460;7.150;2022-12-18T14:42:05;5.47;;;3.72;;
2928;SDS011;1474;51.460;7.150;2022-12-18T14:44:35;7.35;;;4.07;;
2928;SDS011;1474;51.460;7.150;2022-12-18T14:47:00;9.80;;;6.10;;
2928;SDS011;1474;51.460;7.150;2022-12-18T14:49:33;8.43;;;5.00;;
2928;SDS011;1474;51.460;7.150;2022-12-18T14:52:03;7.97;;;4.70;;
2928;SDS011;1474;51.460;7.150;2022-12-18T14:54:30;6.45;;;3.80;;
2928;SDS011;1474;51.460;7.150;2022-12-18T14:57:04;7.97;;;4.85;;
2928;SDS011;1474;51.460;7.150;2022-12-18T14:59:41;7.75;;;4.35;;
2928;SDS011;1474;51.460;7.150;2022-12-18T15:04:43;6.85;;;4.35;;
2928;SDS011;1474;51.460;7.150;2022-12-18T15:07:19;9.02;;;4.43;;
2928;SDS011;1474;51.460;7.150;2022-12-18T15:12:34;4.85;;;3.63;;
2928;SDS011;1474;51.460;7.150;2022-12-18T15:15:43;9.57;;;5.95;;
2928;SDS011;1474;51.460;7.150;2022-12-18T15:18:11;8.45;;;3.95;;
2928;SDS011;1474;51.460;7.150;2022-12-18T15:26:00;5.45;;;3.22;;
2928;SDS011;1474;51.460;7.150;2022-12-18T15:33:39;11.38;;;6.28;;
2928;SDS011;1474;51.460;7.150;2022-12-18T15:36:17;7.63;;;4.82;;
2928;SDS011;1474;51.460;7.150;2022-12-18T15:38:47;7.72;;;4.82;;
2928;SDS011;1474;51.460;7.150;2022-12-18T15:41:17;7.45;;;5.13;;
2928;SDS011;1474;51.460;7.150;2022-12-18T15:43:48;8.90;;;5.18;;
2928;SDS011;1474;51.460;7.150;2022-12-18T15:46:16;10.98;;;5.43;;
2928;SDS011;1474;51.460;7.150;2022-12-18T15:48:44;7.57;;;4.80;;
2928;SDS011;1474;51.460;7.150;2022-12-18T15:51:16;8.52;;;5.88;;
2928;SDS011;1474;51.460;7.150;2022-12-18T15:53:44;6.68;;;5.18;;
2928;SDS011;1474;51.460;7.150;2022-12-18T15:56:11;8.52;;;6.35;;
2928;SDS011;1474;51.460;7.150;2022-12-18T15:58:56;10.93;;;6.13;;
2928;SDS011;1474;51.460;7.150;2022-12-18T16:01:23;12.40;;;6.20;;
2928;SDS011;1474;51.460;7.150;2022-12-18T16:03:50;6.15;;;3.95;;
2928;SDS011;1474;51.460;7.150;2022-12-18T16:06:16;4.30;;;3.22;;
2928;SDS011;1474;51.460;7.150;2022-12-18T16:08:42;11.45;;;6.28;;
2928;SDS011;1474;51.460;7.150;2022-12-18T16:11:24;11.95;;;6.50;;
2928;SDS011;1474;51.460;7.150;2022-12-18T16:14:08;8.50;;;6.43;;
2928;SDS011;1474;51.460;7.150;2022-12-18T16:16:58;9.88;;;5.57;;
2928;SDS011;1474;51.460;7.150;2022-12-18T16:19:26;9.73;;;5.22;;
2928;SDS011;1474;51.460;7.150;2022-12-18T16:21:52;11.02;;;6.70;;
2928;SDS011;1474;51.460;7.150;2022-12-18T16:24:21;8.25;;;6.38;;
2928;SDS011;1474;51.460;7.150;2022-12-18T16:26:50;10.95;;;6.15;;
2928;SDS011;1474;51.460;7.150;2022-12-18T16:29:19;10.32;;;5.95;;
2928;SDS011;1474;51.460;7.150;2022-12-18T16:31:52;11.57;;;7.13;;
2928;SDS011;1474;51.460;7.150;2022-12-18T16:36:50;12.90;;;7.57;;
2928;SDS011;1474;51.460;7.150;2022-12-18T16:39:16;8.32;;;5.13;;
2928;SDS011;1474;51.460;7.150;2022-12-18T16:41:42;11.82;;;6.88;;
2928;SDS011;1474;51.460;7.150;2022-12-18T16:44:08;11.45;;;6.20;;
2928;SDS011;1474;51.460;7.150;2022-12-18T16:46:35;13.90;;;7.18;;
2928;SDS011;1474;51.460;7.150;2022-12-18T16:49:01;11.93;;;6.88;;
2928;SDS011;1474;51.460;7.150;2022-12-18T16:51:26;13.63;;;7.90;;
2928;SDS011;1474;51.460;7.150;2022-12-18T16:53:53;8.55;;;5.00;;
2928;SDS011;1474;51.460;7.150;2022-12-18T16:56:19;10.20;;;6.63;;
2928;SDS011;1474;51.460;7.150;2022-12-18T16:58:54;9.57;;;7.13;;
2928;SDS011;1474;51.460;7.150;2022-12-18T17:01:22;9.45;;;7.65;;
2928;SDS011;1474;51.460;7.150;2022-12-18T17:03:54;10.38;;;6.13;;
2928;SDS011;1474;51.460;7.150;2022-12-18T17:06:22;10.32;;;6.28;;
2928;SDS011;1474;51.460;7.150;2022-12-18T17:09:03;10.40;;;6.35;;
2928;SDS011;1474;51.460;7.150;2022-12-18T17:11:31;7.65;;;6.38;;
2928;SDS011;1474;51.460;7.150;2022-12-18T17:13:58;13.90;;;6.43;;
2928;SDS011;1474;51.460;7.150;2022-12-18T17:16:24;11.27;;;6.30;;
2928;SDS011;1474;51.460;7.150;2022-12-18T17:18:51;11.80;;;7.32;;
2928;SDS011;1474;51.460;7.150;2022-12-18T17:21:17;9.93;;;7.10;;
2928;SDS011;1474;51.460;7.150;2022-12-18T17:23:43;10.52;;;7.63;;
2928;SDS011;1474;51.460;7.150;2022-12-18T17:26:09;15.07;;;9.00;;
2928;SDS011;1474;51.460;7.150;2022-12-18T17:28:36;13.45;;;9.70;;
2928;SDS011;1474;51.460;7.150;2022-12-18T17:31:09;12.48;;;8.18;;
2928;SDS011;1474;51.460;7.150;2022-12-18T17:33:36;7.35;;;5.07;;